createdAt,value
2023-02-17T00:00:12.344Z,95540.94
2023-02-17T00:02:15.695Z,95542.56
2023-02-17T00:04:17.300Z,95543.09
2023-02-17T00:06:24.340Z,95536.56
2023-02-17T00:08:25.949Z,95543.94
2023-02-17T00:10:27.584Z,95535.59
2023-02-17T00:12:29.133Z,95541.25
2023-02-17T00:14:30.709Z,95542.44
2023-02-17T00:16:32.363Z,95540.25
2023-02-17T00:18:36.872Z,95532.56
2023-02-17T00:20:38.474Z,95533.72
2023-02-17T00:22:40.224Z,95535.28
2023-02-17T00:24:42.031Z,95529.59
2023-02-17T00:26:43.942Z,95537.38
2023-02-17T00:28:45.990Z,95532.91
2023-02-17T00:30:47.691Z,95523.47
2023-02-17T00:32:49.416Z,95521.50
2023-02-17T00:34:52.672Z,95512.47
2023-02-17T00:36:54.380Z,95524.19
2023-02-17T00:38:57.268Z,95517.31
2023-02-17T00:40:59.040Z,95512.94
2023-02-17T00:43:00.667Z,95511.50
2023-02-17T00:45:02.316Z,95512.88
2023-02-17T00:47:06.709Z,95500.22
2023-02-17T00:49:08.852Z,95498.13
2023-02-17T00:51:15.603Z,95495.22
2023-02-17T00:53:17.272Z,95503.53
2023-02-17T00:55:18.955Z,95506.72
2023-02-17T00:57:20.607Z,95513.00
2023-02-17T00:59:22.245Z,95521.63
2023-02-17T01:01:23.920Z,95517.31
2023-02-17T01:03:26.385Z,95512.06
2023-02-17T01:05:28.179Z,95512.09
2023-02-17T01:07:42.356Z,95493.41
2023-02-17T01:09:43.929Z,95495.56
2023-02-17T01:11:45.540Z,95509.13
2023-02-17T01:13:47.395Z,95504.41
2023-02-17T01:15:51.546Z,95495.06
2023-02-17T01:17:53.149Z,95506.50
2023-02-17T01:19:54.741Z,95497.59
2023-02-17T01:21:56.493Z,95502.25
2023-02-17T01:24:00.125Z,95512.53
2023-02-17T01:26:01.684Z,95506.25
2023-02-17T01:28:03.663Z,95506.78
2023-02-17T01:30:05.897Z,95491.88
2023-02-17T01:32:07.477Z,95492.00
2023-02-17T01:34:10.689Z,95490.91
2023-02-17T01:36:14.900Z,95488.03
2023-02-17T01:38:16.479Z,95496.75
2023-02-17T01:40:28.780Z,95486.13
2023-02-17T01:42:30.418Z,95486.03
2023-02-17T01:44:32.652Z,95486.28
2023-02-17T01:46:36.245Z,95479.91
2023-02-17T01:48:49.624Z,95487.94
2023-02-17T01:50:58.581Z,95483.97
2023-02-17T01:53:02.357Z,95492.66
2023-02-17T01:55:08.920Z,95491.56
2023-02-17T01:57:11.893Z,95493.25
2023-02-17T01:59:19.767Z,95487.88
2023-02-17T02:01:21.762Z,95483.72
2023-02-17T02:03:23.561Z,95485.19
2023-02-17T02:05:29.480Z,95483.97
2023-02-17T02:07:35.007Z,95478.00
2023-02-17T02:09:44.609Z,95475.09
2023-02-17T02:11:49.629Z,95481.72
2023-02-17T02:13:51.370Z,95478.88
2023-02-17T02:16:01.641Z,95486.47
2023-02-17T02:18:31.924Z,95478.13
2023-02-17T02:21:16.169Z,95476.94
2023-02-17T02:23:51.505Z,95474.94
2023-02-17T02:26:31.242Z,95482.59
2023-02-17T02:29:10.288Z,95481.31
2023-02-17T02:31:37.710Z,95478.81
2023-02-17T02:34:01.051Z,95480.41
2023-02-17T02:36:31.432Z,95493.78
2023-02-17T02:38:47.239Z,95485.72
2023-02-17T02:41:18.277Z,95489.38
2023-02-17T02:43:24.346Z,95477.28
2023-02-17T02:45:26.128Z,95486.34
2023-02-17T02:47:46.662Z,95486.16
2023-02-17T02:49:48.422Z,95481.72
2023-02-17T02:51:57.985Z,95479.44
2023-02-17T02:54:17.687Z,95492.75
2023-02-17T02:56:44.404Z,95494.38
2023-02-17T02:58:52.814Z,95480.69
2023-02-17T03:01:03.669Z,95496.81
2023-02-17T03:03:36.207Z,95475.16
2023-02-17T03:05:46.349Z,95485.72
2023-02-17T03:07:54.380Z,95490.53
2023-02-17T03:09:57.985Z,95487.00
2023-02-17T03:11:59.688Z,95481.44
2023-02-17T03:14:08.804Z,95490.31
2023-02-17T03:16:13.058Z,95480.84
2023-02-17T03:18:17.748Z,95481.44
2023-02-17T03:20:19.535Z,95482.78
2023-02-17T03:22:33.411Z,95482.41
2023-02-17T03:24:35.362Z,95486.53
2023-02-17T03:26:40.067Z,95472.84
2023-02-17T03:28:41.719Z,95474.72
2023-02-17T03:30:43.407Z,95479.06
2023-02-17T03:32:48.417Z,95485.44
2023-02-17T03:34:50.425Z,95496.69
2023-02-17T03:36:52.063Z,95497.53
2023-02-17T03:38:53.718Z,95492.63
2023-02-17T03:40:55.399Z,95486.94
2023-02-17T03:42:57.899Z,95480.00
2023-02-17T03:44:59.533Z,95481.53
2023-02-17T03:47:01.260Z,95483.13
2023-02-17T03:49:02.888Z,95493.94
2023-02-17T03:51:33.704Z,95489.03
2023-02-17T03:53:35.306Z,95480.91
2023-02-17T03:55:36.917Z,95486.63
2023-02-17T03:57:38.530Z,95479.97
2023-02-17T03:59:40.120Z,95489.94
2023-02-17T04:01:44.755Z,95489.88
2023-02-17T04:03:46.369Z,95477.38
2023-02-17T04:05:47.995Z,95497.16
2023-02-17T04:07:50.069Z,95486.78
2023-02-17T04:09:51.715Z,95488.38
2023-02-17T04:11:56.520Z,95469.84
2023-02-17T04:13:58.130Z,95487.88
2023-02-17T04:16:01.566Z,95477.88
2023-02-17T04:18:03.272Z,95480.19
2023-02-17T04:20:06.533Z,95480.75
2023-02-17T04:22:09.092Z,95478.25
2023-02-17T04:24:10.755Z,95476.09
2023-02-17T04:26:12.351Z,95471.16
2023-02-17T04:28:14.701Z,95476.44
2023-02-17T04:30:16.633Z,95470.91
2023-02-17T04:32:18.218Z,95479.44
2023-02-17T04:34:19.805Z,95479.00
2023-02-17T04:36:25.316Z,95481.06
2023-02-17T04:38:28.755Z,95476.41
2023-02-17T04:40:30.841Z,95492.09
2023-02-17T04:42:32.471Z,95492.31
2023-02-17T04:44:34.190Z,95489.19
2023-02-17T04:46:35.900Z,95490.69
2023-02-17T04:48:46.504Z,95486.25
2023-02-17T04:50:48.246Z,95485.69
2023-02-17T04:52:49.852Z,95491.94
2023-02-17T04:54:51.586Z,95490.63
2023-02-17T04:56:53.194Z,95491.09
2023-02-17T04:58:54.798Z,95487.97
2023-02-17T05:01:01.126Z,95487.31
2023-02-17T05:03:03.358Z,95492.69
2023-02-17T05:05:05.135Z,95488.91
2023-02-17T05:07:06.777Z,95483.16
2023-02-17T05:09:11.255Z,95499.00
2023-02-17T05:11:12.855Z,95500.41
2023-02-17T05:13:14.456Z,95512.72
2023-02-17T05:15:16.061Z,95507.72
2023-02-17T05:17:17.617Z,95501.03
2023-02-17T05:19:19.198Z,95516.75
2023-02-17T05:21:20.782Z,95518.00
2023-02-17T05:23:22.632Z,95519.34
2023-02-17T05:25:24.206Z,95527.03
2023-02-17T05:27:25.932Z,95528.78
2023-02-17T05:29:27.550Z,95526.56
2023-02-17T05:31:29.215Z,95521.94
2023-02-17T05:33:30.927Z,95517.94
2023-02-17T05:35:35.167Z,95526.81
2023-02-17T05:37:36.891Z,95529.16
2023-02-17T05:39:38.925Z,95530.34
2023-02-17T05:41:40.532Z,95530.78
2023-02-17T05:43:42.191Z,95527.63
2023-02-17T05:45:43.865Z,95550.03
2023-02-17T05:47:45.467Z,95542.00
2023-02-17T05:49:49.836Z,95542.28
2023-02-17T05:51:51.390Z,95555.00
2023-02-17T05:53:53.012Z,95541.69
2023-02-17T05:55:54.712Z,95544.72
2023-02-17T05:58:00.905Z,95551.94
2023-02-17T06:00:03.179Z,95557.56
2023-02-17T06:02:04.789Z,95555.50
2023-02-17T06:04:06.401Z,95540.94
2023-02-17T06:06:08.379Z,95550.97
2023-02-17T06:08:10.227Z,95549.22
2023-02-17T06:10:12.203Z,95545.44
2023-02-17T06:12:13.945Z,95546.22
2023-02-17T06:14:15.492Z,95544.94
2023-02-17T06:16:17.246Z,95547.34
2023-02-17T06:18:18.934Z,95558.72
2023-02-17T06:20:20.739Z,95556.47
2023-02-17T06:22:22.439Z,95548.75
2023-02-17T06:24:24.798Z,95554.34
2023-02-17T06:26:26.784Z,95554.59
2023-02-17T06:28:28.487Z,95549.66
2023-02-17T06:30:30.210Z,95556.78
2023-02-17T06:32:31.922Z,95562.22
2023-02-17T06:34:33.559Z,95550.09
2023-02-17T06:36:35.194Z,95557.50
2023-02-17T06:38:36.905Z,95544.81
2023-02-17T06:40:47.765Z,95548.88
2023-02-17T06:42:49.531Z,95551.91
2023-02-17T06:44:51.191Z,95552.53
2023-02-17T06:46:53.067Z,95558.47
2023-02-17T06:48:54.642Z,95571.84
2023-02-17T06:50:56.276Z,95564.09
2023-02-17T06:52:58.003Z,95560.25
2023-02-17T06:55:02.631Z,95561.38
2023-02-17T06:57:04.280Z,95567.31
2023-02-17T06:59:08.818Z,95566.78
2023-02-17T07:01:19.989Z,95560.84
2023-02-17T07:03:21.567Z,95562.91
2023-02-17T07:05:23.221Z,95566.44
2023-02-17T07:07:24.809Z,95567.38
2023-02-17T07:09:26.508Z,95564.13
2023-02-17T07:11:31.416Z,95569.00
2023-02-17T07:13:33.128Z,95569.00
2023-02-17T07:15:35.129Z,95565.75
2023-02-17T07:17:36.820Z,95568.84
2023-02-17T07:19:38.806Z,95574.16
2023-02-17T07:21:49.609Z,95579.31
2023-02-17T07:23:51.253Z,95574.28
2023-02-17T07:25:52.901Z,95575.09
2023-02-17T07:27:58.295Z,95583.53
2023-02-17T07:29:59.935Z,95584.03
2023-02-17T07:32:07.697Z,95582.69
2023-02-17T07:34:09.414Z,95579.25
2023-02-17T07:36:16.168Z,95582.97
2023-02-17T07:38:17.801Z,95584.97
2023-02-17T07:40:19.473Z,95582.16
2023-02-17T07:42:21.098Z,95581.69
2023-02-17T07:44:22.720Z,95589.31
2023-02-17T07:46:24.799Z,95600.34
2023-02-17T07:48:26.733Z,95581.06
2023-02-17T07:50:28.512Z,95583.97
2023-02-17T07:52:30.201Z,95589.00
2023-02-17T07:54:31.812Z,95585.59
2023-02-17T07:56:34.027Z,95585.69
2023-02-17T07:58:37.300Z,95580.81
2023-02-17T08:00:38.915Z,95580.91
2023-02-17T08:02:40.566Z,95578.28
2023-02-17T08:04:42.226Z,95585.72
2023-02-17T08:06:46.686Z,95581.69
2023-02-17T08:09:08.425Z,95574.81
2023-02-17T08:11:33.489Z,95575.97
2023-02-17T08:13:35.080Z,95578.97
2023-02-17T08:15:36.869Z,95580.53
2023-02-17T08:17:38.638Z,95571.63
2023-02-17T08:19:48.004Z,95579.56
2023-02-17T08:21:50.638Z,95577.38
2023-02-17T08:23:52.562Z,95568.91
2023-02-17T08:25:58.053Z,95567.56
2023-02-17T08:27:59.803Z,95570.31
2023-02-17T08:30:04.854Z,95565.47
2023-02-17T08:32:06.529Z,95564.88
2023-02-17T08:34:10.416Z,95560.94
2023-02-17T08:36:12.327Z,95563.16
2023-02-17T08:38:14.223Z,95561.56
2023-02-17T08:40:17.007Z,95557.56
2023-02-17T08:42:19.861Z,95555.03
2023-02-17T08:44:22.448Z,95560.47
2023-02-17T08:46:24.221Z,95558.34
2023-02-17T08:48:26.077Z,95554.56
2023-02-17T08:50:27.818Z,95557.34
2023-02-17T08:52:29.506Z,95554.78
2023-02-17T08:54:31.548Z,95548.97
2023-02-17T08:56:34.315Z,95545.53
2023-02-17T08:58:36.633Z,95548.97
2023-02-17T09:00:38.209Z,95554.47
2023-02-17T09:02:42.878Z,95555.00
2023-02-17T09:04:44.817Z,95556.78
2023-02-17T09:06:50.242Z,95554.97
2023-02-17T09:08:51.926Z,95562.16
2023-02-17T09:10:53.575Z,95551.38
2023-02-17T09:12:55.252Z,95551.31
2023-02-17T09:14:56.985Z,95550.84
2023-02-17T09:16:58.754Z,95546.72
2023-02-17T09:19:03.494Z,95549.22
2023-02-17T09:21:10.806Z,95545.72
2023-02-17T09:23:12.464Z,95555.88
2023-02-17T09:25:14.136Z,95545.84
2023-02-17T09:27:16.046Z,95550.22
2023-02-17T09:29:20.672Z,95546.88
2023-02-17T09:31:25.000Z,95553.59
2023-02-17T09:33:27.245Z,95551.19
2023-02-17T09:35:29.090Z,95562.38
2023-02-17T09:37:30.807Z,95548.53
2023-02-17T09:39:32.337Z,95547.88
2023-02-17T09:41:41.749Z,95542.59
2023-02-17T09:43:46.559Z,95563.03
2023-02-17T09:45:51.677Z,95546.63
2023-02-17T09:48:20.723Z,95545.13
2023-02-17T09:50:27.647Z,95552.06
2023-02-17T09:52:31.821Z,95553.97
2023-02-17T09:54:55.095Z,95546.13
2023-02-17T09:56:57.379Z,95543.28
2023-02-17T09:59:06.926Z,95546.50
2023-02-17T10:01:18.068Z,95547.84
2023-02-17T10:03:36.453Z,95544.56
2023-02-17T10:05:45.802Z,95545.00
2023-02-17T10:07:52.796Z,95538.72
2023-02-17T10:09:59.339Z,95531.19
2023-02-17T10:12:03.992Z,95528.72
2023-02-17T10:14:31.589Z,95524.09
2023-02-17T10:16:38.795Z,95525.72
2023-02-17T10:18:54.621Z,95523.47
2023-02-17T10:21:00.980Z,95520.28
2023-02-17T10:23:24.819Z,95526.88
2023-02-17T10:25:44.995Z,95520.75
2023-02-17T10:27:50.640Z,95522.97
2023-02-17T10:30:04.801Z,95515.00
2023-02-17T10:32:25.541Z,95508.63
2023-02-17T10:34:33.361Z,95507.41
2023-02-17T10:37:00.016Z,95505.22
2023-02-17T10:39:16.647Z,95512.75
2023-02-17T10:41:23.139Z,95497.66
2023-02-17T10:43:27.286Z,95499.22
2023-02-17T10:45:37.633Z,95505.63
2023-02-17T10:47:40.272Z,95495.50
2023-02-17T10:49:45.835Z,95488.22
2023-02-17T10:51:47.669Z,95480.88
2023-02-17T10:54:13.140Z,95489.50
2023-02-17T10:56:22.053Z,95478.94
2023-02-17T10:58:30.161Z,95471.13
2023-02-17T11:00:32.718Z,95469.53
2023-02-17T11:02:42.739Z,95480.50
2023-02-17T11:04:50.599Z,95483.31
2023-02-17T11:06:55.355Z,95472.94
2023-02-17T11:09:02.207Z,95479.94
2023-02-17T11:11:07.324Z,95479.03
2023-02-17T11:13:39.472Z,95483.56
2023-02-17T11:15:45.627Z,95472.44
2023-02-17T11:17:47.801Z,95460.47
2023-02-17T11:20:04.099Z,95470.53
2023-02-17T11:22:23.045Z,95467.44
2023-02-17T11:24:25.544Z,95466.09
2023-02-17T11:26:29.891Z,95463.66
2023-02-17T11:28:31.460Z,95463.00
2023-02-17T11:30:34.924Z,95464.50
2023-02-17T11:32:36.982Z,95459.88
2023-02-17T11:34:40.946Z,95462.03
2023-02-17T11:36:45.086Z,95456.25
2023-02-17T11:38:46.716Z,95455.75
2023-02-17T11:41:07.585Z,95456.38
2023-02-17T11:43:19.103Z,95445.50
2023-02-17T11:45:22.703Z,95447.50
2023-02-17T11:47:30.333Z,95446.50
2023-02-17T11:49:41.003Z,95462.53
2023-02-17T11:51:53.783Z,95456.72
2023-02-17T11:54:21.116Z,95452.44
2023-02-17T11:56:30.051Z,95436.44
2023-02-17T11:58:47.868Z,95441.88
2023-02-17T12:01:07.843Z,95431.03
2023-02-17T12:03:25.577Z,95436.13
2023-02-17T12:05:27.225Z,95431.50
2023-02-17T12:07:50.663Z,95432.34
2023-02-17T12:10:27.113Z,95420.81
2023-02-17T12:13:10.389Z,95417.22
2023-02-17T12:15:33.484Z,95423.44
2023-02-17T12:18:03.042Z,95420.59
2023-02-17T12:20:16.804Z,95417.44
2023-02-17T12:22:43.881Z,95414.84
2023-02-17T12:24:51.164Z,95410.56
2023-02-17T12:27:27.681Z,95407.28
2023-02-17T12:29:51.896Z,95400.38
2023-02-17T12:32:05.245Z,95400.03
2023-02-17T12:34:20.336Z,95394.94
2023-02-17T12:36:26.087Z,95395.41
2023-02-17T12:38:33.213Z,95378.97
2023-02-17T12:40:56.624Z,95376.66
2023-02-17T12:43:01.993Z,95381.88
2023-02-17T12:45:07.131Z,95377.91
2023-02-17T12:47:23.490Z,95372.00
2023-02-17T12:49:48.705Z,95387.16
2023-02-17T12:51:53.272Z,95375.81
2023-02-17T12:53:59.753Z,95376.81
2023-02-17T12:56:04.972Z,95371.69
2023-02-17T12:58:16.611Z,95362.97
2023-02-17T13:00:33.824Z,95369.41
2023-02-17T13:02:36.371Z,95359.84
2023-02-17T13:04:38.319Z,95369.56
2023-02-17T13:06:44.159Z,95367.09
2023-02-17T13:08:56.063Z,95366.78
2023-02-17T13:11:02.097Z,95374.03
2023-02-17T13:13:09.915Z,95369.72
2023-02-17T13:15:36.154Z,95364.47
2023-02-17T13:17:40.264Z,95367.13
2023-02-17T13:19:42.036Z,95364.13
2023-02-17T13:21:54.754Z,95360.50
2023-02-17T13:24:30.192Z,95365.13
2023-02-17T13:26:33.956Z,95358.50
2023-02-17T13:28:36.657Z,95366.41
2023-02-17T13:30:40.886Z,95353.09
2023-02-17T13:32:45.771Z,95355.56
2023-02-17T13:34:47.761Z,95361.50
2023-02-17T13:36:49.341Z,95349.16
2023-02-17T13:39:00.582Z,95359.22
2023-02-17T13:41:05.894Z,95357.53
2023-02-17T13:43:15.784Z,95352.63
2023-02-17T13:45:33.994Z,95356.88
2023-02-17T13:47:37.845Z,95346.84
2023-02-17T13:49:39.696Z,95354.25
2023-02-17T13:51:41.375Z,95346.84
2023-02-17T13:53:43.043Z,95345.03
2023-02-17T13:55:44.748Z,95351.78
2023-02-17T13:57:52.600Z,95358.22
2023-02-17T14:00:09.337Z,95347.31
2023-02-17T14:02:30.436Z,95356.38
2023-02-17T14:04:38.359Z,95355.22
2023-02-17T14:06:42.745Z,95351.59
2023-02-17T14:08:44.414Z,95349.66
2023-02-17T14:10:46.448Z,95351.97
2023-02-17T14:12:49.350Z,95353.91
2023-02-17T14:14:50.984Z,95350.09
2023-02-17T14:17:27.350Z,95357.13
2023-02-17T14:19:29.548Z,95345.00
2023-02-17T14:21:31.376Z,95353.06
2023-02-17T14:23:46.227Z,95342.31
2023-02-17T14:25:47.775Z,95354.78
2023-02-17T14:27:52.965Z,95361.13
2023-02-17T14:29:54.641Z,95361.56
2023-02-17T14:31:56.288Z,95353.00
2023-02-17T14:34:00.988Z,95356.16
2023-02-17T14:36:06.568Z,95358.94
2023-02-17T14:38:10.632Z,95355.72
2023-02-17T14:40:24.270Z,95356.75
2023-02-17T14:42:25.902Z,95348.72
2023-02-17T14:44:27.480Z,95357.69
2023-02-17T14:46:29.204Z,95353.81
2023-02-17T14:48:30.855Z,95368.59
2023-02-17T14:50:33.789Z,95361.38
2023-02-17T14:52:41.507Z,95356.75
2023-02-17T14:54:43.105Z,95350.66
2023-02-17T14:57:08.141Z,95359.53
2023-02-17T14:59:10.258Z,95354.34
2023-02-17T15:01:13.810Z,95357.59
2023-02-17T15:03:15.601Z,95346.63
2023-02-17T15:05:17.502Z,95346.44
2023-02-17T15:07:19.416Z,95359.78
2023-02-17T15:09:30.809Z,95352.41
2023-02-17T15:11:35.549Z,95359.34
2023-02-17T15:13:38.145Z,95359.81
2023-02-17T15:15:43.317Z,95359.81
2023-02-17T15:17:45.506Z,95356.31
2023-02-17T15:19:47.169Z,95353.63
2023-02-17T15:21:52.353Z,95358.00
2023-02-17T15:23:55.384Z,95354.13
2023-02-17T15:25:57.063Z,95344.47
2023-02-17T15:27:58.737Z,95347.63
2023-02-17T15:30:00.403Z,95350.09
2023-02-17T15:32:04.737Z,95353.25
2023-02-17T15:34:09.692Z,95356.03
2023-02-17T15:36:17.154Z,95355.72
2023-02-17T15:38:18.768Z,95360.16
2023-02-17T15:40:22.841Z,95360.75
2023-02-17T15:42:26.139Z,95363.81
2023-02-17T15:44:36.551Z,95370.38
2023-02-17T15:46:39.257Z,95371.22
2023-02-17T15:48:41.282Z,95377.59
2023-02-17T15:50:43.160Z,95388.97
2023-02-17T15:52:45.971Z,95392.22
2023-02-17T15:54:48.400Z,95391.19
2023-02-17T15:56:51.591Z,95394.72
2023-02-17T15:58:53.911Z,95391.34
2023-02-17T16:01:00.491Z,95396.50
2023-02-17T16:03:02.388Z,95404.03
2023-02-17T16:05:04.141Z,95412.72
2023-02-17T16:07:05.684Z,95407.22
2023-02-17T16:09:07.782Z,95411.28
2023-02-17T16:11:12.940Z,95414.66
2023-02-17T16:13:16.011Z,95402.72
2023-02-17T16:15:20.956Z,95420.78
2023-02-17T16:17:22.752Z,95418.50
2023-02-17T16:19:24.485Z,95412.69
2023-02-17T16:21:26.234Z,95420.16
2023-02-17T16:23:27.840Z,95423.63
2023-02-17T16:25:30.157Z,95414.06
2023-02-17T16:27:31.820Z,95417.22
2023-02-17T16:29:33.428Z,95420.81
2023-02-17T16:31:35.957Z,95426.72
2023-02-17T16:33:37.641Z,95425.81
2023-02-17T16:35:39.878Z,95424.78
2023-02-17T16:37:41.930Z,95429.88
2023-02-17T16:39:44.240Z,95425.69
2023-02-17T16:41:46.700Z,95433.78
2023-02-17T16:43:48.420Z,95431.53
2023-02-17T16:45:56.214Z,95435.50
2023-02-17T16:47:59.978Z,95437.63
2023-02-17T16:50:02.257Z,95433.19
2023-02-17T16:52:06.910Z,95430.66
2023-02-17T16:54:09.994Z,95425.56
2023-02-17T16:56:18.789Z,95427.88
2023-02-17T16:58:25.470Z,95425.13
2023-02-17T17:00:30.462Z,95434.38
2023-02-17T17:02:32.106Z,95427.63
2023-02-17T17:04:33.759Z,95441.31
2023-02-17T17:06:36.108Z,95441.75
2023-02-17T17:08:37.737Z,95448.63
2023-02-17T17:10:40.585Z,95445.66
2023-02-17T17:12:42.689Z,95435.81
2023-02-17T17:14:44.299Z,95429.75
2023-02-17T17:16:51.240Z,95434.31
2023-02-17T17:18:52.966Z,95437.22
2023-02-17T17:20:54.658Z,95437.38
2023-02-17T17:22:56.399Z,95439.94
2023-02-17T17:24:58.630Z,95439.84
2023-02-17T17:27:00.259Z,95430.06
2023-02-17T17:29:02.899Z,95436.56
2023-02-17T17:31:04.710Z,95440.88
2023-02-17T17:33:06.319Z,95432.66
2023-02-17T17:35:08.131Z,95427.44
2023-02-17T17:37:10.904Z,95422.19
2023-02-17T17:39:17.484Z,95428.28
2023-02-17T17:41:20.046Z,95420.88
2023-02-17T17:43:22.379Z,95426.41
2023-02-17T17:45:24.742Z,95426.41
2023-02-17T17:47:30.275Z,95422.25
2023-02-17T17:49:32.251Z,95425.72
2023-02-17T17:51:33.988Z,95429.03
2023-02-17T17:53:35.568Z,95426.13
2023-02-17T17:55:37.143Z,95428.19
2023-02-17T17:57:39.748Z,95425.47
2023-02-17T17:59:41.401Z,95432.09
2023-02-17T18:01:45.535Z,95429.25
2023-02-17T18:03:48.059Z,95420.81
2023-02-17T18:05:49.819Z,95425.13
2023-02-17T18:07:51.864Z,95414.06
2023-02-17T18:09:53.684Z,95411.84
2023-02-17T18:11:56.502Z,95417.38
2023-02-17T18:14:00.321Z,95416.00
2023-02-17T18:16:01.925Z,95422.06
2023-02-17T18:18:03.926Z,95412.13
2023-02-17T18:20:09.667Z,95412.00
2023-02-17T18:22:12.383Z,95414.63
2023-02-17T18:24:14.139Z,95410.47
2023-02-17T18:26:15.970Z,95418.50
2023-02-17T18:28:17.596Z,95420.44
2023-02-17T18:30:21.263Z,95422.25
2023-02-17T18:32:23.993Z,95416.56
2023-02-17T18:34:26.308Z,95421.50
2023-02-17T18:36:27.956Z,95415.72
2023-02-17T18:38:31.050Z,95419.44
2023-02-17T18:40:32.805Z,95418.50
2023-02-17T18:42:34.733Z,95414.50
2023-02-17T18:44:36.339Z,95418.50
2023-02-17T18:46:40.009Z,95417.00
2023-02-17T18:48:41.687Z,95418.94
2023-02-17T18:50:43.286Z,95419.38
2023-02-17T18:52:45.175Z,95419.09
2023-02-17T18:54:46.837Z,95413.19
2023-02-17T18:56:48.562Z,95413.31
2023-02-17T18:58:51.491Z,95415.94
2023-02-17T19:00:53.078Z,95412.50
2023-02-17T19:02:54.982Z,95419.09
2023-02-17T19:04:57.020Z,95428.78
2023-02-17T19:07:03.252Z,95437.72
2023-02-17T19:09:05.216Z,95432.16
2023-02-17T19:11:08.289Z,95438.41
2023-02-17T19:13:10.015Z,95433.41
2023-02-17T19:15:14.093Z,95445.53
2023-02-17T19:17:18.369Z,95438.78
2023-02-17T19:19:20.075Z,95438.34
2023-02-17T19:21:22.214Z,95440.16
2023-02-17T19:23:24.045Z,95440.03
2023-02-17T19:25:25.802Z,95446.38
2023-02-17T19:27:27.524Z,95447.47
2023-02-17T19:29:29.270Z,95445.81
2023-02-17T19:31:31.373Z,95449.69
2023-02-17T19:33:33.108Z,95446.94
2023-02-17T19:35:34.822Z,95448.31
2023-02-17T19:37:36.453Z,95452.59
2023-02-17T19:39:38.169Z,95449.69
2023-02-17T19:41:39.853Z,95441.69
2023-02-17T19:43:42.028Z,95446.81
2023-02-17T19:45:46.342Z,95439.91
2023-02-17T19:47:47.879Z,95438.00
2023-02-17T19:49:49.481Z,95436.75
2023-02-17T19:51:51.135Z,95432.34
2023-02-17T19:53:52.777Z,95438.94
2023-02-17T19:55:54.417Z,95429.88
2023-02-17T19:57:55.982Z,95435.38
2023-02-17T19:59:57.621Z,95428.34
2023-02-17T20:01:59.513Z,95427.78
2023-02-17T20:04:03.630Z,95421.28
2023-02-17T20:06:10.562Z,95425.16
2023-02-17T20:08:12.213Z,95423.53
2023-02-17T20:10:14.167Z,95429.03
2023-02-17T20:12:17.609Z,95419.63
2023-02-17T20:14:19.691Z,95420.88
2023-02-17T20:16:21.445Z,95420.69
2023-02-17T20:18:23.048Z,95415.31
2023-02-17T20:20:24.860Z,95415.31
2023-02-17T20:22:26.603Z,95416.06
2023-02-17T20:24:28.414Z,95416.06
2023-02-17T20:26:32.355Z,95417.31
2023-02-17T20:28:34.488Z,95416.91
2023-02-17T20:30:36.184Z,95422.44
2023-02-17T20:32:37.878Z,95431.78
2023-02-17T20:34:40.096Z,95428.19
2023-02-17T20:36:41.715Z,95426.94
2023-02-17T20:38:43.379Z,95421.00
2023-02-17T20:40:45.383Z,95428.97
2023-02-17T20:42:46.936Z,95429.66
2023-02-17T20:44:50.381Z,95425.72
2023-02-17T20:46:52.483Z,95428.88
2023-02-17T20:48:55.008Z,95433.06
2023-02-17T20:50:57.566Z,95438.44
2023-02-17T20:52:59.186Z,95435.00
2023-02-17T20:55:00.886Z,95430.75
2023-02-17T20:57:02.600Z,95430.91
2023-02-17T20:59:05.254Z,95440.94
2023-02-17T21:01:06.954Z,95440.94
2023-02-17T21:03:08.838Z,95438.03
2023-02-17T21:05:11.062Z,95436.69
2023-02-17T21:07:12.627Z,95443.28
2023-02-17T21:09:16.660Z,95441.63
2023-02-17T21:11:19.108Z,95445.47
2023-02-17T21:13:22.777Z,95434.84
2023-02-17T21:15:24.674Z,95447.47
2023-02-17T21:17:26.375Z,95443.16
2023-02-17T21:19:29.708Z,95442.28
2023-02-17T21:21:31.618Z,95440.56
2023-02-17T21:23:33.210Z,95442.66
2023-02-17T21:25:34.798Z,95431.69
2023-02-17T21:27:37.334Z,95438.31
2023-02-17T21:29:39.066Z,95429.63
2023-02-17T21:31:40.733Z,95427.41
2023-02-17T21:33:42.983Z,95423.94
2023-02-17T21:35:44.597Z,95420.63
2023-02-17T21:37:46.184Z,95425.47
2023-02-17T21:39:47.828Z,95427.69
2023-02-17T21:41:51.333Z,95420.53
2023-02-17T21:44:11.369Z,95424.53
2023-02-17T21:46:13.004Z,95419.03
2023-02-17T21:48:14.843Z,95414.94
2023-02-17T21:50:17.314Z,95414.66
2023-02-17T21:52:18.903Z,95420.97
2023-02-17T21:54:20.616Z,95417.66
2023-02-17T21:56:22.901Z,95422.00
2023-02-17T21:58:24.510Z,95418.13
2023-02-17T22:00:26.295Z,95415.75
2023-02-17T22:02:27.924Z,95414.34
2023-02-17T22:04:30.216Z,95417.53
2023-02-17T22:06:36.892Z,95420.28
2023-02-17T22:08:39.676Z,95420.88
2023-02-17T22:10:42.796Z,95422.25
2023-02-17T22:12:44.439Z,95421.16
2023-02-17T22:14:46.293Z,95421.59
2023-02-17T22:16:48.687Z,95422.00
2023-02-17T22:18:50.650Z,95423.19
2023-02-17T22:20:52.211Z,95423.59
2023-02-17T22:22:54.207Z,95427.66
2023-02-17T22:24:55.931Z,95419.94
2023-02-17T22:26:57.627Z,95422.81
2023-02-17T22:28:59.362Z,95420.19
2023-02-17T22:31:01.078Z,95414.13
2023-02-17T22:33:04.086Z,95420.31
2023-02-17T22:35:06.324Z,95412.28
2023-02-17T22:37:07.899Z,95417.25
2023-02-17T22:39:09.556Z,95417.50
2023-02-17T22:41:13.635Z,95411.56
2023-02-17T22:43:15.401Z,95404.00
2023-02-17T22:45:17.200Z,95416.47
2023-02-17T22:47:18.843Z,95413.41
2023-02-17T22:49:20.458Z,95400.38
2023-02-17T22:51:40.708Z,95405.22
2023-02-17T22:53:42.482Z,95402.91
2023-02-17T22:55:51.473Z,95401.31
2023-02-17T22:57:53.135Z,95406.19
2023-02-17T22:59:54.719Z,95406.47
2023-02-17T23:01:59.264Z,95411.78
2023-02-17T23:04:01.367Z,95417.59
2023-02-17T23:06:09.060Z,95420.28
2023-02-17T23:08:11.302Z,95414.72
2023-02-17T23:10:13.109Z,95424.03
2023-02-17T23:12:14.655Z,95413.16
2023-02-17T23:14:37.365Z,95410.91
2023-02-17T23:16:42.114Z,95402.50
2023-02-17T23:18:43.857Z,95403.72
2023-02-17T23:20:48.125Z,95406.00
2023-02-17T23:22:49.719Z,95400.44
2023-02-17T23:24:51.519Z,95387.31
2023-02-17T23:26:54.559Z,95396.78
2023-02-17T23:28:56.407Z,95408.06
2023-02-17T23:30:58.194Z,95405.09
2023-02-17T23:33:00.218Z,95391.00
2023-02-17T23:35:01.841Z,95395.16
2023-02-17T23:37:03.503Z,95398.91
2023-02-17T23:39:05.187Z,95394.75
2023-02-17T23:41:06.807Z,95401.38
2023-02-17T23:43:08.926Z,95393.56
2023-02-17T23:45:10.820Z,95395.69
2023-02-17T23:47:12.521Z,95393.44
2023-02-17T23:49:16.262Z,95379.72
2023-02-17T23:51:19.214Z,95377.09
2023-02-17T23:53:20.766Z,95384.34
2023-02-17T23:55:22.389Z,95383.16
2023-02-17T23:57:23.922Z,95373.47
2023-02-17T23:59:26.773Z,95377.97
